sensor_id;sensor_type;location;lat;lon;timestamp;P1;durP1;ratioP1;P2;durP2;ratioP2
5682;SDS011;2864;49.220;8.654;2022-10-16T00:01:41;1.70;;;1.60;;
5682;SDS011;2864;49.220;8.654;2022-10-16T00:04:07;4.03;;;1.70;;
5682;SDS011;2864;49.220;8.654;2022-10-16T00:06:33;2.70;;;1.63;;
5682;SDS011;2864;49.220;8.654;2022-10-16T00:08:59;2.30;;;1.80;;
5682;SDS011;2864;49.220;8.654;2022-10-16T00:11:28;3.77;;;1.70;;
5682;SDS011;2864;49.220;8.654;2022-10-16T00:13:59;3.00;;;1.80;;
5682;SDS011;2864;49.220;8.654;2022-10-16T00:16:26;4.53;;;1.83;;
5682;SDS011;2864;49.220;8.654;2022-10-16T00:18:53;3.10;;;1.90;;
5682;SDS011;2864;49.220;8.654;2022-10-16T00:21:20;2.40;;;1.90;;
5682;SDS011;2864;49.220;8.654;2022-10-16T00:23:54;2.97;;;1.90;;
5682;SDS011;2864;49.220;8.654;2022-10-16T00:26:25;3.17;;;2.00;;
5682;SDS011;2864;49.220;8.654;2022-10-16T00:28:51;3.53;;;2.00;;
5682;SDS011;2864;49.220;8.654;2022-10-16T00:31:18;2.60;;;1.67;;
5682;SDS011;2864;49.220;8.654;2022-10-16T00:33:45;3.93;;;1.90;;
5682;SDS011;2864;49.220;8.654;2022-10-16T00:36:11;2.03;;;1.83;;
5682;SDS011;2864;49.220;8.654;2022-10-16T00:38:42;2.80;;;1.60;;
5682;SDS011;2864;49.220;8.654;2022-10-16T00:41:09;5.13;;;1.90;;
5682;SDS011;2864;49.220;8.654;2022-10-16T00:49:09;5.53;;;1.50;;
5682;SDS011;2864;49.220;8.654;2022-10-16T00:51:41;3.10;;;1.80;;
5682;SDS011;2864;49.220;8.654;2022-10-16T00:54:09;3.33;;;1.70;;
5682;SDS011;2864;49.220;8.654;2022-10-16T00:56:40;3.97;;;1.70;;
5682;SDS011;2864;49.220;8.654;2022-10-16T00:59:07;2.73;;;1.90;;
5682;SDS011;2864;49.220;8.654;2022-10-16T01:01:40;3.40;;;1.80;;
5682;SDS011;2864;49.220;8.654;2022-10-16T01:04:05;2.03;;;1.83;;
5682;SDS011;2864;49.220;8.654;2022-10-16T01:06:34;5.40;;;1.87;;
5682;SDS011;2864;49.220;8.654;2022-10-16T01:09:30;4.80;;;1.80;;
5682;SDS011;2864;49.220;8.654;2022-10-16T01:12:09;1.97;;;1.77;;
5682;SDS011;2864;49.220;8.654;2022-10-16T01:14:53;4.33;;;1.77;;
5682;SDS011;2864;49.220;8.654;2022-10-16T01:17:23;3.27;;;1.70;;
5682;SDS011;2864;49.220;8.654;2022-10-16T01:20:03;2.23;;;1.73;;
5682;SDS011;2864;49.220;8.654;2022-10-16T01:28:32;3.70;;;1.77;;
5682;SDS011;2864;49.220;8.654;2022-10-16T01:31:04;2.63;;;1.70;;
5682;SDS011;2864;49.220;8.654;2022-10-16T01:33:34;2.80;;;1.70;;
5682;SDS011;2864;49.220;8.654;2022-10-16T01:36:25;6.37;;;1.80;;
5682;SDS011;2864;49.220;8.654;2022-10-16T01:38:56;4.27;;;1.80;;
5682;SDS011;2864;49.220;8.654;2022-10-16T01:41:29;4.43;;;1.70;;
5682;SDS011;2864;49.220;8.654;2022-10-16T01:44:02;2.83;;;1.80;;
5682;SDS011;2864;49.220;8.654;2022-10-16T01:46:31;2.83;;;1.80;;
5682;SDS011;2864;49.220;8.654;2022-10-16T01:49:00;3.90;;;2.00;;
5682;SDS011;2864;49.220;8.654;2022-10-16T01:51:28;2.00;;;1.80;;
5682;SDS011;2864;49.220;8.654;2022-10-16T01:53:55;3.33;;;1.70;;
5682;SDS011;2864;49.220;8.654;2022-10-16T01:56:24;2.73;;;1.90;;
5682;SDS011;2864;49.220;8.654;2022-10-16T01:58:57;2.43;;;2.03;;
5682;SDS011;2864;49.220;8.654;2022-10-16T02:01:26;3.10;;;1.87;;
5682;SDS011;2864;49.220;8.654;2022-10-16T02:03:55;2.00;;;1.90;;
5682;SDS011;2864;49.220;8.654;2022-10-16T02:06:26;3.43;;;1.70;;
5682;SDS011;2864;49.220;8.654;2022-10-16T02:08:51;3.30;;;1.80;;
5682;SDS011;2864;49.220;8.654;2022-10-16T02:11:18;2.90;;;1.80;;
5682;SDS011;2864;49.220;8.654;2022-10-16T02:13:48;3.20;;;1.80;;
5682;SDS011;2864;49.220;8.654;2022-10-16T02:16:18;2.20;;;1.60;;
5682;SDS011;2864;49.220;8.654;2022-10-16T02:18:44;4.60;;;1.90;;
5682;SDS011;2864;49.220;8.654;2022-10-16T02:21:17;4.03;;;1.90;;
5682;SDS011;2864;49.220;8.654;2022-10-16T02:29:20;1.67;;;1.57;;
5682;SDS011;2864;49.220;8.654;2022-10-16T02:31:49;3.53;;;1.70;;
5682;SDS011;2864;49.220;8.654;2022-10-16T02:34:18;3.83;;;2.40;;
5682;SDS011;2864;49.220;8.654;2022-10-16T02:36:46;11.30;;;5.03;;
5682;SDS011;2864;49.220;8.654;2022-10-16T02:39:14;9.47;;;4.87;;
5682;SDS011;2864;49.220;8.654;2022-10-16T02:41:40;7.93;;;3.30;;
5682;SDS011;2864;49.220;8.654;2022-10-16T02:44:06;4.43;;;2.80;;
5682;SDS011;2864;49.220;8.654;2022-10-16T02:46:31;6.20;;;2.70;;
5682;SDS011;2864;49.220;8.654;2022-10-16T02:48:57;2.90;;;2.40;;
5682;SDS011;2864;49.220;8.654;2022-10-16T02:51:23;4.57;;;2.40;;
5682;SDS011;2864;49.220;8.654;2022-10-16T02:53:48;5.20;;;2.30;;
5682;SDS011;2864;49.220;8.654;2022-10-16T02:56:14;3.20;;;2.10;;
5682;SDS011;2864;49.220;8.654;2022-10-16T02:58:39;3.00;;;2.30;;
5682;SDS011;2864;49.220;8.654;2022-10-16T03:01:05;3.87;;;2.30;;
5682;SDS011;2864;49.220;8.654;2022-10-16T03:03:30;3.97;;;3.00;;
5682;SDS011;2864;49.220;8.654;2022-10-16T03:05:56;4.47;;;2.10;;
5682;SDS011;2864;49.220;8.654;2022-10-16T03:08:21;7.07;;;2.57;;
5682;SDS011;2864;49.220;8.654;2022-10-16T03:10:49;2.97;;;2.17;;
5682;SDS011;2864;49.220;8.654;2022-10-16T03:13:15;5.27;;;2.30;;
5682;SDS011;2864;49.220;8.654;2022-10-16T03:15:40;5.90;;;2.40;;
5682;SDS011;2864;49.220;8.654;2022-10-16T03:18:06;2.63;;;2.43;;
5682;SDS011;2864;49.220;8.654;2022-10-16T03:20:31;2.73;;;2.17;;
5682;SDS011;2864;49.220;8.654;2022-10-16T03:22:57;5.80;;;2.40;;
5682;SDS011;2864;49.220;8.654;2022-10-16T03:25:23;6.23;;;2.20;;
5682;SDS011;2864;49.220;8.654;2022-10-16T03:27:48;3.27;;;2.17;;
5682;SDS011;2864;49.220;8.654;2022-10-16T03:30:14;3.90;;;2.00;;
5682;SDS011;2864;49.220;8.654;2022-10-16T03:32:40;4.53;;;2.30;;
5682;SDS011;2864;49.220;8.654;2022-10-16T03:35:05;5.20;;;2.40;;
5682;SDS011;2864;49.220;8.654;2022-10-16T03:37:31;4.00;;;2.40;;
5682;SDS011;2864;49.220;8.654;2022-10-16T03:39:57;6.00;;;2.90;;
5682;SDS011;2864;49.220;8.654;2022-10-16T03:42:22;5.57;;;3.67;;
5682;SDS011;2864;49.220;8.654;2022-10-16T03:44:49;4.93;;;2.90;;
5682;SDS011;2864;49.220;8.654;2022-10-16T03:47:14;5.20;;;2.77;;
5682;SDS011;2864;49.220;8.654;2022-10-16T03:49:40;3.67;;;2.70;;
5682;SDS011;2864;49.220;8.654;2022-10-16T03:52:06;5.97;;;2.53;;
5682;SDS011;2864;49.220;8.654;2022-10-16T03:54:31;4.43;;;2.63;;
5682;SDS011;2864;49.220;8.654;2022-10-16T03:56:57;4.67;;;2.50;;
5682;SDS011;2864;49.220;8.654;2022-10-16T03:59:23;6.80;;;2.73;;
5682;SDS011;2864;49.220;8.654;2022-10-16T04:01:48;3.77;;;2.10;;
5682;SDS011;2864;49.220;8.654;2022-10-16T04:04:14;6.00;;;2.33;;
5682;SDS011;2864;49.220;8.654;2022-10-16T04:06:39;5.63;;;2.20;;
5682;SDS011;2864;49.220;8.654;2022-10-16T04:09:05;3.93;;;2.43;;
5682;SDS011;2864;49.220;8.654;2022-10-16T04:11:30;3.03;;;2.30;;
5682;SDS011;2864;49.220;8.654;2022-10-16T04:13:56;2.40;;;2.20;;
5682;SDS011;2864;49.220;8.654;2022-10-16T04:16:22;3.13;;;2.17;;
5682;SDS011;2864;49.220;8.654;2022-10-16T04:18:48;5.40;;;2.00;;
5682;SDS011;2864;49.220;8.654;2022-10-16T04:21:13;3.80;;;2.30;;
5682;SDS011;2864;49.220;8.654;2022-10-16T04:23:41;3.13;;;2.23;;
5682;SDS011;2864;49.220;8.654;2022-10-16T04:26:08;3.77;;;2.40;;
5682;SDS011;2864;49.220;8.654;2022-10-16T04:28:35;3.00;;;2.47;;
5682;SDS011;2864;49.220;8.654;2022-10-16T04:31:05;5.10;;;3.00;;
5682;SDS011;2864;49.220;8.654;2022-10-16T04:33:31;8.07;;;2.90;;
5682;SDS011;2864;49.220;8.654;2022-10-16T04:35:59;7.07;;;3.07;;
5682;SDS011;2864;49.220;8.654;2022-10-16T04:38:26;4.33;;;3.30;;
5682;SDS011;2864;49.220;8.654;2022-10-16T04:40:51;4.43;;;3.20;;
5682;SDS011;2864;49.220;8.654;2022-10-16T04:43:19;8.50;;;3.23;;
5682;SDS011;2864;49.220;8.654;2022-10-16T04:45:48;11.73;;;7.03;;
5682;SDS011;2864;49.220;8.654;2022-10-16T04:48:19;11.63;;;7.13;;
5682;SDS011;2864;49.220;8.654;2022-10-16T04:50:45;7.23;;;5.03;;
5682;SDS011;2864;49.220;8.654;2022-10-16T04:53:12;4.53;;;3.27;;
5682;SDS011;2864;49.220;8.654;2022-10-16T04:55:43;5.27;;;2.50;;
5682;SDS011;2864;49.220;8.654;2022-10-16T04:58:09;7.67;;;2.53;;
5682;SDS011;2864;49.220;8.654;2022-10-16T05:00:35;3.53;;;2.60;;
5682;SDS011;2864;49.220;8.654;2022-10-16T05:03:03;5.70;;;2.37;;
5682;SDS011;2864;49.220;8.654;2022-10-16T05:05:36;3.97;;;2.77;;
5682;SDS011;2864;49.220;8.654;2022-10-16T05:08:02;7.07;;;2.70;;
5682;SDS011;2864;49.220;8.654;2022-10-16T05:10:28;5.53;;;2.80;;
5682;SDS011;2864;49.220;8.654;2022-10-16T05:12:54;4.97;;;2.90;;
5682;SDS011;2864;49.220;8.654;2022-10-16T05:15:20;4.80;;;2.77;;
5682;SDS011;2864;49.220;8.654;2022-10-16T05:17:45;3.43;;;2.63;;
5682;SDS011;2864;49.220;8.654;2022-10-16T05:20:11;4.30;;;2.87;;
5682;SDS011;2864;49.220;8.654;2022-10-16T05:22:37;4.73;;;2.97;;
5682;SDS011;2864;49.220;8.654;2022-10-16T05:25:02;3.93;;;2.50;;
5682;SDS011;2864;49.220;8.654;2022-10-16T05:27:29;5.03;;;2.50;;
5682;SDS011;2864;49.220;8.654;2022-10-16T05:29:54;3.50;;;2.30;;
5682;SDS011;2864;49.220;8.654;2022-10-16T05:32:20;6.70;;;2.73;;
5682;SDS011;2864;49.220;8.654;2022-10-16T05:34:45;6.70;;;2.70;;
5682;SDS011;2864;49.220;8.654;2022-10-16T05:37:11;5.27;;;2.57;;
5682;SDS011;2864;49.220;8.654;2022-10-16T05:39:37;5.27;;;2.67;;
5682;SDS011;2864;49.220;8.654;2022-10-16T05:42:04;7.37;;;2.87;;
5682;SDS011;2864;49.220;8.654;2022-10-16T05:44:30;3.10;;;2.80;;
5682;SDS011;2864;49.220;8.654;2022-10-16T05:46:55;3.53;;;2.90;;
5682;SDS011;2864;49.220;8.654;2022-10-16T05:49:21;8.03;;;3.90;;
5682;SDS011;2864;49.220;8.654;2022-10-16T05:51:46;5.40;;;3.70;;
5682;SDS011;2864;49.220;8.654;2022-10-16T05:54:12;9.30;;;4.23;;
5682;SDS011;2864;49.220;8.654;2022-10-16T05:56:38;6.00;;;3.13;;
5682;SDS011;2864;49.220;8.654;2022-10-16T05:59:03;5.30;;;3.20;;
5682;SDS011;2864;49.220;8.654;2022-10-16T06:01:30;5.00;;;3.33;;
5682;SDS011;2864;49.220;8.654;2022-10-16T06:03:55;6.93;;;3.30;;
5682;SDS011;2864;49.220;8.654;2022-10-16T06:06:22;7.63;;;3.13;;
5682;SDS011;2864;49.220;8.654;2022-10-16T06:12:12;4.93;;;3.40;;
5682;SDS011;2864;49.220;8.654;2022-10-16T06:14:38;7.53;;;3.50;;
5682;SDS011;2864;49.220;8.654;2022-10-16T06:17:03;7.00;;;3.63;;
5682;SDS011;2864;49.220;8.654;2022-10-16T06:19:29;4.97;;;3.10;;
5682;SDS011;2864;49.220;8.654;2022-10-16T06:21:56;8.23;;;2.90;;
5682;SDS011;2864;49.220;8.654;2022-10-16T06:24:22;9.33;;;3.27;;
5682;SDS011;2864;49.220;8.654;2022-10-16T06:26:48;4.43;;;3.07;;
5682;SDS011;2864;49.220;8.654;2022-10-16T06:29:14;6.10;;;3.20;;
5682;SDS011;2864;49.220;8.654;2022-10-16T06:31:39;6.37;;;3.20;;
5682;SDS011;2864;49.220;8.654;2022-10-16T06:34:05;5.73;;;2.90;;
5682;SDS011;2864;49.220;8.654;2022-10-16T06:36:34;4.77;;;3.30;;
5682;SDS011;2864;49.220;8.654;2022-10-16T06:39:00;7.43;;;3.17;;
5682;SDS011;2864;49.220;8.654;2022-10-16T06:41:26;8.67;;;3.30;;
5682;SDS011;2864;49.220;8.654;2022-10-16T06:43:51;4.67;;;3.63;;
5682;SDS011;2864;49.220;8.654;2022-10-16T06:46:18;7.93;;;3.53;;
5682;SDS011;2864;49.220;8.654;2022-10-16T06:48:47;5.23;;;3.20;;
5682;SDS011;2864;49.220;8.654;2022-10-16T06:51:14;8.10;;;3.47;;
5682;SDS011;2864;49.220;8.654;2022-10-16T06:53:41;7.70;;;3.27;;
5682;SDS011;2864;49.220;8.654;2022-10-16T06:56:13;9.93;;;3.97;;
5682;SDS011;2864;49.220;8.654;2022-10-16T06:58:49;5.00;;;3.60;;
5682;SDS011;2864;49.220;8.654;2022-10-16T07:01:17;6.20;;;3.10;;
5682;SDS011;2864;49.220;8.654;2022-10-16T07:03:44;6.60;;;2.80;;
5682;SDS011;2864;49.220;8.654;2022-10-16T07:06:12;4.03;;;2.77;;
5682;SDS011;2864;49.220;8.654;2022-10-16T07:08:40;3.43;;;2.20;;
5682;SDS011;2864;49.220;8.654;2022-10-16T07:11:08;5.70;;;2.30;;
5682;SDS011;2864;49.220;8.654;2022-10-16T07:13:35;5.40;;;2.17;;
5682;SDS011;2864;49.220;8.654;2022-10-16T07:18:35;2.70;;;2.30;;
5682;SDS011;2864;49.220;8.654;2022-10-16T07:21:05;6.90;;;2.33;;
5682;SDS011;2864;49.220;8.654;2022-10-16T07:23:35;3.87;;;2.50;;
5682;SDS011;2864;49.220;8.654;2022-10-16T07:26:01;4.00;;;2.20;;
5682;SDS011;2864;49.220;8.654;2022-10-16T07:28:28;3.73;;;2.23;;
5682;SDS011;2864;49.220;8.654;2022-10-16T07:30:53;7.10;;;2.50;;
5682;SDS011;2864;49.220;8.654;2022-10-16T07:33:19;4.70;;;2.53;;
5682;SDS011;2864;49.220;8.654;2022-10-16T07:35:51;3.80;;;2.17;;
5682;SDS011;2864;49.220;8.654;2022-10-16T07:38:18;4.13;;;2.13;;
5682;SDS011;2864;49.220;8.654;2022-10-16T07:40:44;3.53;;;1.93;;
5682;SDS011;2864;49.220;8.654;2022-10-16T07:43:10;4.83;;;1.90;;
5682;SDS011;2864;49.220;8.654;2022-10-16T07:45:36;2.07;;;1.70;;
5682;SDS011;2864;49.220;8.654;2022-10-16T07:48:02;3.60;;;1.73;;
5682;SDS011;2864;49.220;8.654;2022-10-16T07:50:28;2.17;;;1.60;;
5682;SDS011;2864;49.220;8.654;2022-10-16T07:52:53;4.73;;;1.60;;
5682;SDS011;2864;49.220;8.654;2022-10-16T07:55:19;5.33;;;1.90;;
5682;SDS011;2864;49.220;8.654;2022-10-16T07:57:44;4.10;;;1.90;;
5682;SDS011;2864;49.220;8.654;2022-10-16T08:00:10;5.60;;;1.80;;
5682;SDS011;2864;49.220;8.654;2022-10-16T08:02:38;2.53;;;1.70;;
5682;SDS011;2864;49.220;8.654;2022-10-16T08:05:05;4.00;;;1.90;;
5682;SDS011;2864;49.220;8.654;2022-10-16T08:07:31;4.40;;;1.90;;
5682;SDS011;2864;49.220;8.654;2022-10-16T08:09:57;4.50;;;2.03;;
5682;SDS011;2864;49.220;8.654;2022-10-16T08:12:23;4.77;;;2.07;;
5682;SDS011;2864;49.220;8.654;2022-10-16T08:14:50;4.40;;;2.50;;
5682;SDS011;2864;49.220;8.654;2022-10-16T08:17:15;6.50;;;2.33;;
5682;SDS011;2864;49.220;8.654;2022-10-16T08:19:44;2.80;;;2.10;;
5682;SDS011;2864;49.220;8.654;2022-10-16T08:22:10;4.03;;;2.30;;
5682;SDS011;2864;49.220;8.654;2022-10-16T08:24:36;4.27;;;2.20;;
5682;SDS011;2864;49.220;8.654;2022-10-16T08:27:02;5.87;;;2.47;;
5682;SDS011;2864;49.220;8.654;2022-10-16T08:29:28;3.20;;;2.33;;
5682;SDS011;2864;49.220;8.654;2022-10-16T08:31:53;3.83;;;2.03;;
5682;SDS011;2864;49.220;8.654;2022-10-16T08:34:19;5.83;;;2.13;;
5682;SDS011;2864;49.220;8.654;2022-10-16T08:36:44;4.33;;;2.90;;
5682;SDS011;2864;49.220;8.654;2022-10-16T08:39:10;5.87;;;2.93;;
5682;SDS011;2864;49.220;8.654;2022-10-16T08:47:18;4.13;;;2.90;;
5682;SDS011;2864;49.220;8.654;2022-10-16T08:49:56;4.43;;;3.00;;
5682;SDS011;2864;49.220;8.654;2022-10-16T08:52:25;3.27;;;2.77;;
5682;SDS011;2864;49.220;8.654;2022-10-16T08:54:56;4.50;;;2.97;;
5682;SDS011;2864;49.220;8.654;2022-10-16T08:57:22;5.43;;;2.40;;
5682;SDS011;2864;49.220;8.654;2022-10-16T08:59:51;5.03;;;2.57;;
5682;SDS011;2864;49.220;8.654;2022-10-16T09:18:35;3.83;;;2.60;;
5682;SDS011;2864;49.220;8.654;2022-10-16T09:21:26;4.20;;;2.40;;
5682;SDS011;2864;49.220;8.654;2022-10-16T09:24:38;4.10;;;2.00;;
5682;SDS011;2864;49.220;8.654;2022-10-16T09:26:46;5.30;;;2.57;;
5682;SDS011;2864;49.220;8.654;2022-10-16T09:29:13;4.10;;;2.30;;
5682;SDS011;2864;49.220;8.654;2022-10-16T09:31:39;2.87;;;1.87;;
5682;SDS011;2864;49.220;8.654;2022-10-16T09:34:06;2.87;;;1.87;;
5682;SDS011;2864;49.220;8.654;2022-10-16T09:36:40;2.07;;;1.87;;
5682;SDS011;2864;49.220;8.654;2022-10-16T09:39:10;6.67;;;2.20;;
5682;SDS011;2864;49.220;8.654;2022-10-16T09:41:41;4.73;;;2.00;;
5682;SDS011;2864;49.220;8.654;2022-10-16T09:44:28;2.00;;;1.80;;
5682;SDS011;2864;49.220;8.654;2022-10-16T09:49:58;5.73;;;2.00;;
5682;SDS011;2864;49.220;8.654;2022-10-16T09:52:27;8.33;;;2.43;;
5682;SDS011;2864;49.220;8.654;2022-10-16T09:54:59;7.10;;;2.20;;
5682;SDS011;2864;49.220;8.654;2022-10-16T09:57:27;5.27;;;1.97;;
5682;SDS011;2864;49.220;8.654;2022-10-16T09:59:56;5.27;;;1.80;;
5682;SDS011;2864;49.220;8.654;2022-10-16T10:02:28;4.97;;;1.70;;
5682;SDS011;2864;49.220;8.654;2022-10-16T10:04:56;2.07;;;1.50;;
5682;SDS011;2864;49.220;8.654;2022-10-16T10:07:32;5.00;;;1.90;;
5682;SDS011;2864;49.220;8.654;2022-10-16T10:10:01;6.60;;;1.70;;
5682;SDS011;2864;49.220;8.654;2022-10-16T10:12:30;3.73;;;1.47;;
5682;SDS011;2864;49.220;8.654;2022-10-16T10:15:02;5.57;;;1.90;;
5682;SDS011;2864;49.220;8.654;2022-10-16T10:17:31;2.67;;;1.80;;
5682;SDS011;2864;49.220;8.654;2022-10-16T10:19:57;3.83;;;1.70;;
5682;SDS011;2864;49.220;8.654;2022-10-16T10:36:56;3.67;;;1.80;;
5682;SDS011;2864;49.220;8.654;2022-10-16T10:44:30;3.60;;;1.70;;
5682;SDS011;2864;49.220;8.654;2022-10-16T10:52:50;4.90;;;1.60;;
5682;SDS011;2864;49.220;8.654;2022-10-16T10:55:24;1.87;;;1.70;;
5682;SDS011;2864;49.220;8.654;2022-10-16T11:00:48;4.37;;;2.10;;
5682;SDS011;2864;49.220;8.654;2022-10-16T11:03:55;2.73;;;1.67;;
5682;SDS011;2864;49.220;8.654;2022-10-16T11:06:33;2.28;;;1.63;;
5682;SDS011;2864;49.220;8.654;2022-10-16T11:11:38;5.75;;;1.63;;
5682;SDS011;2864;49.220;8.654;2022-10-16T11:16:50;2.77;;;1.73;;
5682;SDS011;2864;49.220;8.654;2022-10-16T11:25:16;2.83;;;1.80;;
5682;SDS011;2864;49.220;8.654;2022-10-16T11:27:53;3.17;;;1.88;;
5682;SDS011;2864;49.220;8.654;2022-10-16T11:30:24;5.18;;;1.67;;
5682;SDS011;2864;49.220;8.654;2022-10-16T11:32:54;1.77;;;1.60;;
5682;SDS011;2864;49.220;8.654;2022-10-16T11:35:30;3.05;;;1.70;;
5682;SDS011;2864;49.220;8.654;2022-10-16T11:38:03;6.47;;;1.70;;
5682;SDS011;2864;49.220;8.654;2022-10-16T11:40:37;6.22;;;1.70;;
5682;SDS011;2864;49.220;8.654;2022-10-16T11:43:10;4.95;;;2.08;;
5682;SDS011;2864;49.220;8.654;2022-10-16T11:45:51;2.45;;;1.60;;
5682;SDS011;2864;49.220;8.654;2022-10-16T11:48:24;3.80;;;1.80;;
5682;SDS011;2864;49.220;8.654;2022-10-16T11:51:00;2.22;;;1.77;;
5682;SDS011;2864;49.220;8.654;2022-10-16T11:53:56;4.55;;;1.90;;
5682;SDS011;2864;49.220;8.654;2022-10-16T11:56:26;4.63;;;1.40;;
5682;SDS011;2864;49.220;8.654;2022-10-16T11:59:01;2.03;;;1.90;;
5682;SDS011;2864;49.220;8.654;2022-10-16T12:11:57;4.10;;;1.80;;
5682;SDS011;2864;49.220;8.654;2022-10-16T12:17:27;4.03;;;1.70;;
5682;SDS011;2864;49.220;8.654;2022-10-16T12:19:57;2.35;;;1.73;;
5682;SDS011;2864;49.220;8.654;2022-10-16T12:22:24;3.10;;;1.60;;
5682;SDS011;2864;49.220;8.654;2022-10-16T12:24:54;4.22;;;1.98;;
5682;SDS011;2864;49.220;8.654;2022-10-16T12:27:29;6.50;;;1.80;;
5682;SDS011;2864;49.220;8.654;2022-10-16T12:30:00;3.30;;;1.85;;
5682;SDS011;2864;49.220;8.654;2022-10-16T12:32:30;2.85;;;1.75;;
5682;SDS011;2864;49.220;8.654;2022-10-16T12:34:56;2.90;;;1.50;;
5682;SDS011;2864;49.220;8.654;2022-10-16T12:37:35;3.45;;;1.58;;
5682;SDS011;2864;49.220;8.654;2022-10-16T12:40:12;4.50;;;1.88;;
5682;SDS011;2864;49.220;8.654;2022-10-16T12:42:56;3.85;;;1.50;;
5682;SDS011;2864;49.220;8.654;2022-10-16T12:45:26;4.60;;;1.48;;
5682;SDS011;2864;49.220;8.654;2022-10-16T12:47:53;5.53;;;1.83;;
5682;SDS011;2864;49.220;8.654;2022-10-16T12:50:24;3.75;;;2.00;;
5682;SDS011;2864;49.220;8.654;2022-10-16T12:52:53;4.43;;;2.10;;
5682;SDS011;2864;49.220;8.654;2022-10-16T12:55:19;5.53;;;2.10;;
5682;SDS011;2864;49.220;8.654;2022-10-16T13:05:45;2.75;;;1.95;;
5682;SDS011;2864;49.220;8.654;2022-10-16T13:08:36;4.05;;;2.20;;
5682;SDS011;2864;49.220;8.654;2022-10-16T13:22:34;3.97;;;2.20;;
5682;SDS011;2864;49.220;8.654;2022-10-16T13:25:17;6.60;;;1.90;;
5682;SDS011;2864;49.220;8.654;2022-10-16T13:27:52;2.72;;;1.92;;
5682;SDS011;2864;49.220;8.654;2022-10-16T13:30:31;2.83;;;2.03;;
5682;SDS011;2864;49.220;8.654;2022-10-16T13:33:03;3.37;;;2.50;;
5682;SDS011;2864;49.220;8.654;2022-10-16T13:35:33;4.00;;;2.77;;
5682;SDS011;2864;49.220;8.654;2022-10-16T13:38:12;5.00;;;3.13;;
5682;SDS011;2864;49.220;8.654;2022-10-16T13:43:21;3.90;;;2.20;;
5682;SDS011;2864;49.220;8.654;2022-10-16T13:46:05;6.43;;;2.10;;
5682;SDS011;2864;49.220;8.654;2022-10-16T13:48:35;3.70;;;2.10;;
5682;SDS011;2864;49.220;8.654;2022-10-16T13:53:59;4.07;;;1.90;;
5682;SDS011;2864;49.220;8.654;2022-10-16T13:56:26;4.00;;;2.10;;
5682;SDS011;2864;49.220;8.654;2022-10-16T13:59:05;6.23;;;2.77;;
5682;SDS011;2864;49.220;8.654;2022-10-16T14:01:52;3.50;;;2.00;;
5682;SDS011;2864;49.220;8.654;2022-10-16T14:04:19;3.93;;;2.30;;
5682;SDS011;2864;49.220;8.654;2022-10-16T14:06:46;5.17;;;2.23;;
5682;SDS011;2864;49.220;8.654;2022-10-16T14:09:25;7.10;;;2.30;;
5682;SDS011;2864;49.220;8.654;2022-10-16T14:11:54;5.13;;;2.50;;
5682;SDS011;2864;49.220;8.654;2022-10-16T14:14:34;7.53;;;2.10;;
5682;SDS011;2864;49.220;8.654;2022-10-16T14:17:05;6.40;;;2.20;;
5682;SDS011;2864;49.220;8.654;2022-10-16T14:19:31;3.97;;;2.20;;
5682;SDS011;2864;49.220;8.654;2022-10-16T14:21:57;7.00;;;2.67;;
5682;SDS011;2864;49.220;8.654;2022-10-16T14:24:27;4.90;;;2.20;;
5682;SDS011;2864;49.220;8.654;2022-10-16T14:26:52;2.23;;;2.00;;
5682;SDS011;2864;49.220;8.654;2022-10-16T14:29:21;15.83;;;2.90;;
5682;SDS011;2864;49.220;8.654;2022-10-16T14:32:04;3.83;;;1.93;;
5682;SDS011;2864;49.220;8.654;2022-10-16T14:34:31;4.40;;;2.13;;
5682;SDS011;2864;49.220;8.654;2022-10-16T14:39:51;3.40;;;2.03;;
5682;SDS011;2864;49.220;8.654;2022-10-16T14:42:18;9.07;;;2.50;;
5682;SDS011;2864;49.220;8.654;2022-10-16T14:44:45;3.30;;;2.30;;
5682;SDS011;2864;49.220;8.654;2022-10-16T14:47:16;3.60;;;2.27;;
5682;SDS011;2864;49.220;8.654;2022-10-16T14:49:49;4.90;;;2.23;;
5682;SDS011;2864;49.220;8.654;2022-10-16T14:52:15;5.50;;;2.13;;
5682;SDS011;2864;49.220;8.654;2022-10-16T14:54:40;3.87;;;1.93;;
5682;SDS011;2864;49.220;8.654;2022-10-16T14:57:13;6.77;;;2.60;;
5682;SDS011;2864;49.220;8.654;2022-10-16T14:59:42;10.83;;;2.33;;
5682;SDS011;2864;49.220;8.654;2022-10-16T15:07:54;7.40;;;3.90;;
5682;SDS011;2864;49.220;8.654;2022-10-16T15:13:35;8.10;;;3.30;;
5682;SDS011;2864;49.220;8.654;2022-10-16T15:17:07;5.07;;;3.15;;
5682;SDS011;2864;49.220;8.654;2022-10-16T15:22:53;8.82;;;2.80;;
5682;SDS011;2864;49.220;8.654;2022-10-16T15:28:02;5.60;;;3.13;;
5682;SDS011;2864;49.220;8.654;2022-10-16T15:30:29;7.20;;;3.03;;
5682;SDS011;2864;49.220;8.654;2022-10-16T15:42:45;5.97;;;2.73;;
5682;SDS011;2864;49.220;8.654;2022-10-16T15:45:12;7.03;;;3.10;;
5682;SDS011;2864;49.220;8.654;2022-10-16T15:47:38;5.97;;;2.60;;
5682;SDS011;2864;49.220;8.654;2022-10-16T15:50:05;7.20;;;3.00;;
5682;SDS011;2864;49.220;8.654;2022-10-16T15:52:31;4.90;;;3.10;;
5682;SDS011;2864;49.220;8.654;2022-10-16T15:54:57;5.50;;;3.60;;
5682;SDS011;2864;49.220;8.654;2022-10-16T15:57:23;7.27;;;4.30;;
5682;SDS011;2864;49.220;8.654;2022-10-16T15:59:49;7.80;;;4.13;;
5682;SDS011;2864;49.220;8.654;2022-10-16T16:02:15;6.00;;;3.30;;
5682;SDS011;2864;49.220;8.654;2022-10-16T16:04:41;6.67;;;3.57;;
5682;SDS011;2864;49.220;8.654;2022-10-16T16:07:06;10.77;;;4.57;;
5682;SDS011;2864;49.220;8.654;2022-10-16T16:09:32;8.57;;;3.90;;
5682;SDS011;2864;49.220;8.654;2022-10-16T16:11:58;8.07;;;3.30;;
5682;SDS011;2864;49.220;8.654;2022-10-16T16:14:27;5.60;;;4.03;;
5682;SDS011;2864;49.220;8.654;2022-10-16T16:16:54;8.03;;;4.13;;
5682;SDS011;2864;49.220;8.654;2022-10-16T16:19:20;7.13;;;3.60;;
5682;SDS011;2864;49.220;8.654;2022-10-16T16:21:46;7.43;;;3.07;;
5682;SDS011;2864;49.220;8.654;2022-10-16T16:24:12;8.53;;;3.90;;
5682;SDS011;2864;49.220;8.654;2022-10-16T16:26:38;8.17;;;4.90;;
5682;SDS011;2864;49.220;8.654;2022-10-16T16:29:08;12.93;;;5.87;;
5682;SDS011;2864;49.220;8.654;2022-10-16T16:31:37;7.73;;;5.43;;
5682;SDS011;2864;49.220;8.654;2022-10-16T16:34:03;10.80;;;6.13;;
5682;SDS011;2864;49.220;8.654;2022-10-16T16:36:29;8.13;;;5.87;;
5682;SDS011;2864;49.220;8.654;2022-10-16T16:38:55;6.43;;;4.83;;
5682;SDS011;2864;49.220;8.654;2022-10-16T16:41:23;7.87;;;4.47;;
5682;SDS011;2864;49.220;8.654;2022-10-16T16:43:50;10.13;;;4.87;;
5682;SDS011;2864;49.220;8.654;2022-10-16T16:46:17;16.00;;;5.30;;
5682;SDS011;2864;49.220;8.654;2022-10-16T16:48:44;8.03;;;5.33;;
5682;SDS011;2864;49.220;8.654;2022-10-16T16:51:15;9.63;;;6.00;;
5682;SDS011;2864;49.220;8.654;2022-10-16T16:53:44;10.47;;;5.57;;
5682;SDS011;2864;49.220;8.654;2022-10-16T16:56:11;7.63;;;5.00;;
5682;SDS011;2864;49.220;8.654;2022-10-16T16:58:37;12.23;;;4.73;;
5682;SDS011;2864;49.220;8.654;2022-10-16T17:01:04;8.40;;;4.50;;
5682;SDS011;2864;49.220;8.654;2022-10-16T17:03:30;10.07;;;4.13;;
5682;SDS011;2864;49.220;8.654;2022-10-16T17:05:57;10.03;;;4.57;;
5682;SDS011;2864;49.220;8.654;2022-10-16T17:08:25;8.70;;;4.80;;
5682;SDS011;2864;49.220;8.654;2022-10-16T17:10:51;12.27;;;4.73;;
5682;SDS011;2864;49.220;8.654;2022-10-16T17:13:20;9.63;;;5.60;;
5682;SDS011;2864;49.220;8.654;2022-10-16T17:15:47;9.83;;;5.90;;
5682;SDS011;2864;49.220;8.654;2022-10-16T17:18:13;13.93;;;8.83;;
5682;SDS011;2864;49.220;8.654;2022-10-16T17:20:40;15.67;;;6.57;;
5682;SDS011;2864;49.220;8.654;2022-10-16T17:23:06;18.07;;;9.20;;
5682;SDS011;2864;49.220;8.654;2022-10-16T17:25:34;20.57;;;9.67;;
5682;SDS011;2864;49.220;8.654;2022-10-16T17:28:00;13.90;;;8.20;;
5682;SDS011;2864;49.220;8.654;2022-10-16T17:30:26;14.90;;;7.67;;
5682;SDS011;2864;49.220;8.654;2022-10-16T17:32:52;14.60;;;6.47;;
5682;SDS011;2864;49.220;8.654;2022-10-16T17:35:17;11.87;;;5.73;;
5682;SDS011;2864;49.220;8.654;2022-10-16T17:37:43;7.87;;;5.67;;
5682;SDS011;2864;49.220;8.654;2022-10-16T17:40:09;10.23;;;5.93;;
5682;SDS011;2864;49.220;8.654;2022-10-16T17:42:38;9.77;;;5.13;;
5682;SDS011;2864;49.220;8.654;2022-10-16T17:45:04;6.70;;;4.77;;
5682;SDS011;2864;49.220;8.654;2022-10-16T17:47:30;10.57;;;4.97;;
5682;SDS011;2864;49.220;8.654;2022-10-16T17:49:55;10.57;;;6.60;;
5682;SDS011;2864;49.220;8.654;2022-10-16T17:52:22;10.23;;;5.93;;
5682;SDS011;2864;49.220;8.654;2022-10-16T17:54:49;8.50;;;5.70;;
5682;SDS011;2864;49.220;8.654;2022-10-16T17:57:16;9.93;;;5.57;;
5682;SDS011;2864;49.220;8.654;2022-10-16T18:06:27;7.83;;;4.67;;